Time;durP1;ratioP1;P1;durP2;ratioP2;P2;SDS_P1;SDS_P2;PMS_P1;PMS_P2;Temp;Humidity;BMP_temperature;BMP_pressure;BME280_temperature;BME280_humidity;BME280_pressure;Samples;Min_cycle;Max_cycle;Signal;HPM_P1;HPM_P2
2023/01/24 00:00:53;;;;;;;72.10;65.03;;;2.70;92.50;;;;;;5017167;28;20175;-89
2023/01/24 00:03:19;;;;;;;74.33;66.63;;;2.70;92.50;;;;;;5017230;28;20185;-89
2023/01/24 00:05:46;;;;;;;72.87;65.17;;;2.80;92.50;;;;;;5016234;28;20566;-89
2023/01/24 00:08:14;;;;;;;72.80;65.43;;;2.70;92.40;;;;;;5016748;28;20208;-89
2023/01/24 00:10:40;;;;;;;73.17;65.80;;;2.70;92.50;;;;;;5016127;28;20179;-89
2023/01/24 00:13:06;;;;;;;74.77;66.87;;;2.60;92.50;;;;;;5016808;28;20209;-89
2023/01/24 00:15:32;;;;;;;72.27;65.07;;;2.70;92.50;;;;;;5016144;28;20201;-89
2023/01/24 00:17:58;;;;;;;71.93;64.77;;;2.70;92.50;;;;;;5015999;28;20552;-89
2023/01/24 00:20:24;;;;;;;72.23;65.10;;;2.70;92.50;;;;;;5016038;28;20582;-88
2023/01/24 00:22:50;;;;;;;76.00;68.50;;;2.70;92.50;;;;;;5015872;28;20183;-89
2023/01/24 00:25:15;;;;;;;73.87;66.70;;;2.60;92.50;;;;;;5016010;28;20185;-89
2023/01/24 00:27:41;;;;;;;75.73;68.33;;;2.60;92.50;;;;;;5015871;28;20213;-89
2023/01/24 00:30:07;;;;;;;74.03;66.90;;;2.60;92.50;;;;;;5015827;28;20181;-89
2023/01/24 00:32:32;;;;;;;79.40;71.77;;;2.50;92.60;;;;;;5015607;28;20244;-88
2023/01/24 00:34:58;;;;;;;80.53;73.07;;;2.50;92.60;;;;;;5015595;28;20589;-88
2023/01/24 00:37:24;;;;;;;82.77;74.27;;;2.50;92.70;;;;;;5015311;28;20295;-89
2023/01/24 00:39:50;;;;;;;79.83;71.87;;;2.50;92.70;;;;;;5017046;28;20166;-88
2023/01/24 00:42:15;;;;;;;72.37;65.30;;;2.50;92.80;;;;;;5015354;28;20181;-88
2023/01/24 00:44:41;;;;;;;80.47;72.20;;;2.60;92.80;;;;;;5016571;28;20187;-88
2023/01/24 00:47:06;;;;;;;77.00;69.97;;;2.50;92.80;;;;;;5016585;28;20728;-88
2023/01/24 00:49:32;;;;;;;75.23;68.30;;;2.50;92.80;;;;;;5016420;28;20181;-89
2023/01/24 00:51:57;;;;;;;75.17;67.17;;;2.50;92.80;;;;;;5015205;28;20210;-88
2023/01/24 00:54:23;;;;;;;80.23;72.70;;;2.50;92.80;;;;;;5015747;28;20234;-88
2023/01/24 00:56:48;;;;;;;76.50;68.50;;;2.50;92.90;;;;;;5015679;28;20215;-88
2023/01/24 00:59:14;;;;;;;80.57;72.43;;;2.60;92.90;;;;;;5015036;28;20194;-88
2023/01/24 01:01:39;;;;;;;78.17;69.87;;;2.50;92.90;;;;;;5015067;28;20170;-88
2023/01/24 01:04:05;;;;;;;77.53;70.47;;;2.50;92.90;;;;;;5014980;28;20581;-89
2023/01/24 01:06:31;;;;;;;79.40;71.23;;;2.50;92.90;;;;;;5014797;28;20173;-88
2023/01/24 01:08:56;;;;;;;82.30;73.87;;;2.50;92.90;;;;;;5014877;28;20190;-88
2023/01/24 01:11:22;;;;;;;74.43;66.57;;;2.50;92.90;;;;;;5014974;28;20170;-88
2023/01/24 01:13:50;;;;;;;84.83;77.10;;;2.50;93.00;;;;;;5014712;28;20579;-89
2023/01/24 01:16:18;;;;;;;78.33;70.07;;;2.50;93.00;;;;;;5014644;28;20209;-88
2023/01/24 01:18:48;;;;;;;77.83;70.53;;;2.60;93.10;;;;;;5015893;28;20185;-88
2023/01/24 01:21:18;;;;;;;80.17;72.33;;;2.60;93.00;;;;;;5015399;28;20181;-88
2023/01/24 01:23:44;;;;;;;83.17;75.03;;;2.60;93.00;;;;;;5014841;28;20175;-88
2023/01/24 01:26:17;;;;;;;78.90;70.57;;;2.60;93.00;;;;;;5014584;28;20178;-88
2023/01/24 01:28:42;;;;;;;79.83;71.57;;;2.60;93.00;;;;;;5015998;28;20200;-89
2023/01/24 01:31:08;;;;;;;82.37;74.03;;;2.50;93.00;;;;;;5014461;28;20182;-90
2023/01/24 01:33:35;;;;;;;81.53;73.33;;;2.50;93.00;;;;;;5014398;28;20236;-89
2023/01/24 01:36:00;;;;;;;82.17;74.57;;;2.60;93.00;;;;;;5014404;28;20621;-89
2023/01/24 01:38:27;;;;;;;82.30;74.50;;;2.50;93.00;;;;;;5014660;28;20214;-89
2023/01/24 01:40:53;;;;;;;81.47;73.97;;;2.50;93.10;;;;;;5015024;28;20176;-90
2023/01/24 01:43:33;;;;;;;83.67;75.87;;;2.50;93.10;;;;;;5014678;28;20666;-89
2023/01/24 01:46:18;;;;;;;84.73;76.70;;;2.50;93.10;;;;;;5014053;28;20191;-89
2023/01/24 01:48:49;;;;;;;77.20;69.90;;;2.50;93.10;;;;;;5015013;28;20626;-89
2023/01/24 01:51:29;;;;;;;81.57;73.77;;;2.50;93.10;;;;;;5014205;28;20181;-89
2023/01/24 01:54:18;;;;;;;81.47;73.10;;;2.50;93.10;;;;;;5014082;28;20249;-89
2023/01/24 01:56:58;;;;;;;79.03;71.30;;;2.50;93.10;;;;;;5014828;28;20176;-89
2023/01/24 01:59:29;;;;;;;79.60;71.00;;;2.50;93.10;;;;;;5014785;28;20165;-89
2023/01/24 02:01:58;;;;;;;80.50;72.67;;;2.50;93.10;;;;;;5014213;28;20197;-89
2023/01/24 02:04:35;;;;;;;81.97;74.13;;;2.50;93.00;;;;;;5014123;28;20180;-89
2023/01/24 02:07:13;;;;;;;83.80;75.30;;;2.50;93.10;;;;;;5015025;28;20261;-89
2023/01/24 02:09:42;;;;;;;85.33;76.73;;;2.50;93.10;;;;;;5014373;28;20168;-89
2023/01/24 02:12:18;;;;;;;86.37;77.77;;;2.50;93.10;;;;;;5013757;28;20201;-89
2023/01/24 02:17:31;;;;;;;84.77;76.80;;;2.50;93.10;;;;;;5015027;28;20212;-89
2023/01/24 02:20:17;;;;;;;83.63;75.50;;;2.50;93.20;;;;;;5013374;28;20187;-89
2023/01/24 02:23:11;;;;;;;85.00;76.83;;;2.50;93.20;;;;;;5014393;28;20515;-89
2023/01/24 02:25:53;;;;;;;86.50;77.87;;;2.50;93.20;;;;;;5013622;28;20186;-89
2023/01/24 02:28:19;;;;;;;90.43;81.37;;;2.50;93.20;;;;;;5013559;28;20718;-89
2023/01/24 02:30:44;;;;;;;90.37;81.83;;;2.50;93.20;;;;;;5014573;28;20187;-89
2023/01/24 02:33:16;;;;;;;84.87;76.70;;;2.60;93.20;;;;;;5013818;28;20201;-89
2023/01/24 02:35:42;;;;;;;82.70;74.93;;;2.60;93.20;;;;;;5013331;28;20263;-90
2023/01/24 02:38:32;;;;;;;82.20;74.13;;;2.60;93.20;;;;;;5013382;28;20301;-89
2023/01/24 02:41:06;;;;;;;81.03;72.20;;;2.60;93.20;;;;;;5013417;28;20192;-89
2023/01/24 02:43:34;;;;;;;88.73;79.43;;;2.50;93.20;;;;;;5013580;28;20196;-89
2023/01/24 02:46:00;;;;;;;79.43;71.53;;;2.50;93.20;;;;;;5013237;28;20204;-89
2023/01/24 02:48:25;;;;;;;83.60;75.27;;;2.60;93.10;;;;;;5013374;28;20600;-89
2023/01/24 02:53:36;;;;;;;82.57;74.57;;;2.50;93.10;;;;;;5014274;28;20267;-89
2023/01/24 02:58:50;;;;;;;78.77;70.73;;;2.50;93.00;;;;;;5014595;28;20204;-89
2023/01/24 03:01:17;;;;;;;83.13;74.40;;;2.50;93.10;;;;;;5013463;28;20173;-89
2023/01/24 03:03:47;;;;;;;84.47;75.97;;;2.50;93.00;;;;;;5013051;28;20645;-89
2023/01/24 03:06:14;;;;;;;83.80;74.90;;;2.50;93.10;;;;;;5012911;28;20666;-89
2023/01/24 03:08:40;;;;;;;87.70;78.87;;;2.50;93.10;;;;;;5012624;28;20549;-89
2023/01/24 03:11:07;;;;;;;84.33;75.80;;;2.50;93.10;;;;;;5012744;28;20179;-89
2023/01/24 03:35:29;;;;;;;86.73;77.50;;;2.50;93.10;;;;;;5014233;28;20157;-89
2023/01/24 03:40:38;;;;;;;75.83;68.10;;;2.40;93.00;;;;;;5013877;28;20165;-89
2023/01/24 03:43:04;;;;;;;77.30;69.03;;;2.40;93.00;;;;;;5012528;28;20177;-89
2023/01/24 03:45:38;;;;;;;76.83;69.17;;;2.30;93.00;;;;;;5013825;28;20185;-89
2023/01/24 03:48:09;;;;;;;74.63;64.83;;;2.30;93.10;;;;;;5012607;28;20203;-89
2023/01/24 03:53:23;;;;;;;74.57;66.40;;;2.40;93.00;;;;;;5013833;28;20300;-89
2023/01/24 03:55:54;;;;;;;79.17;70.70;;;2.50;93.00;;;;;;5012362;28;20208;-89
2023/01/24 03:58:21;;;;;;;79.20;71.00;;;2.40;93.00;;;;;;5012102;28;20706;-89
2023/01/24 04:00:46;;;;;;;77.07;69.00;;;2.40;93.00;;;;;;5012221;28;20181;-89
2023/01/24 04:03:12;;;;;;;83.50;75.27;;;2.40;93.00;;;;;;5012120;28;20170;-89
2023/01/24 04:05:37;;;;;;;75.53;67.60;;;2.40;93.00;;;;;;5012160;28;20174;-89
2023/01/24 04:08:04;;;;;;;84.60;76.40;;;2.40;93.00;;;;;;5012099;28;20197;-89
2023/01/24 04:10:30;;;;;;;84.17;76.40;;;2.50;93.00;;;;;;5012101;28;20192;-89
2023/01/24 04:12:56;;;;;;;82.70;74.63;;;2.40;93.10;;;;;;5011938;28;20233;-89
2023/01/24 04:15:24;;;;;;;84.47;76.40;;;2.40;93.10;;;;;;5012031;28;20178;-89
2023/01/24 04:17:50;;;;;;;63.63;57.93;;;2.50;93.20;;;;;;5011925;28;20200;-89
2023/01/24 04:20:16;;;;;;;72.93;65.13;;;2.40;93.10;;;;;;5011973;28;20178;-89
2023/01/24 04:22:42;;;;;;;76.43;68.73;;;2.40;93.00;;;;;;5012257;28;20590;-89
2023/01/24 04:25:09;;;;;;;72.40;64.83;;;2.50;93.00;;;;;;5013019;28;20177;-89
2023/01/24 04:27:36;;;;;;;75.63;68.03;;;2.50;93.00;;;;;;5011849;28;20202;-89
2023/01/24 04:30:04;;;;;;;77.23;69.53;;;2.50;93.00;;;;;;5012521;28;20209;-89
2023/01/24 04:32:29;;;;;;;78.13;69.77;;;2.40;92.90;;;;;;5012372;28;20205;-89
2023/01/24 04:34:55;;;;;;;81.57;73.47;;;2.40;92.90;;;;;;5011972;28;20272;-89
2023/01/24 04:37:20;;;;;;;80.00;72.10;;;2.40;92.90;;;;;;5011820;28;20213;-89
2023/01/24 04:39:46;;;;;;;81.10;73.33;;;2.40;93.00;;;;;;5011873;28;20175;-89
2023/01/24 04:42:11;;;;;;;83.70;75.50;;;2.40;93.00;;;;;;5014111;28;20173;-89
2023/01/24 04:44:37;;;;;;;83.57;75.13;;;2.40;93.00;;;;;;5015534;28;20184;-89
2023/01/24 04:47:02;;;;;;;81.50;73.50;;;2.50;93.00;;;;;;5016111;28;20177;-89
2023/01/24 04:49:28;;;;;;;83.33;75.20;;;2.50;93.00;;;;;;5015301;28;20554;-89
2023/01/24 04:51:53;;;;;;;82.13;73.97;;;2.50;93.00;;;;;;5015179;28;20606;-89
2023/01/24 04:54:19;;;;;;;79.73;72.07;;;2.50;93.00;;;;;;5015455;28;20704;-89
2023/01/24 04:56:45;;;;;;;80.27;72.60;;;2.50;93.00;;;;;;5015587;28;20751;-89
2023/01/24 04:59:11;;;;;;;76.80;69.23;;;2.40;93.00;;;;;;5015036;28;20753;-89
2023/01/24 05:01:37;;;;;;;78.20;70.60;;;2.50;93.00;;;;;;5015236;28;20175;-89
2023/01/24 05:04:02;;;;;;;77.13;69.27;;;2.50;93.00;;;;;;5015703;28;20233;-89
2023/01/24 05:06:30;;;;;;;75.67;67.83;;;2.40;92.90;;;;;;5015098;28;20188;-89
2023/01/24 05:08:56;;;;;;;77.43;69.70;;;2.40;92.90;;;;;;5014947;28;20721;-89
2023/01/24 05:11:24;;;;;;;76.73;69.20;;;2.30;92.90;;;;;;5015626;28;20264;-89
2023/01/24 05:13:50;;;;;;;79.17;70.93;;;2.30;92.90;;;;;;5015274;28;20203;-89
2023/01/24 05:16:16;;;;;;;75.20;68.07;;;2.40;93.00;;;;;;5014938;28;20655;-89
2023/01/24 05:18:42;;;;;;;74.67;67.60;;;2.40;93.00;;;;;;5014758;28;20331;-89
2023/01/24 05:21:13;;;;;;;70.53;63.60;;;2.40;93.00;;;;;;5014814;28;20189;-89
2023/01/24 05:23:39;;;;;;;69.23;62.10;;;2.40;93.00;;;;;;5015033;28;20172;-89
2023/01/24 05:26:05;;;;;;;66.57;60.33;;;2.40;92.90;;;;;;5014690;28;20261;-89
2023/01/24 05:28:31;;;;;;;69.23;62.03;;;2.40;92.80;;;;;;5014539;28;20228;-89
2023/01/24 05:31:01;;;;;;;70.40;63.43;;;2.30;92.80;;;;;;5014486;28;20182;-89
2023/01/24 05:33:27;;;;;;;68.43;61.63;;;2.30;92.80;;;;;;5014510;28;20205;-89
2023/01/24 05:36:07;;;;;;;67.77;61.23;;;2.40;92.80;;;;;;5014775;28;20701;-89
2023/01/24 05:38:34;;;;;;;68.60;62.27;;;2.30;92.80;;;;;;5014444;28;20212;-89
2023/01/24 05:41:01;;;;;;;61.00;55.20;;;2.40;92.90;;;;;;5014861;28;20178;-89
2023/01/24 05:43:27;;;;;;;63.20;57.23;;;2.40;92.80;;;;;;5014301;28;20188;-89
2023/01/24 05:46:04;;;;;;;64.20;57.90;;;2.40;92.70;;;;;;5014286;28;20269;-89
2023/01/24 05:48:30;;;;;;;64.50;57.83;;;2.30;92.70;;;;;;5014193;28;20284;-89
2023/01/24 05:50:57;;;;;;;59.70;54.10;;;2.40;92.70;;;;;;5014128;28;20213;-89
2023/01/24 05:53:23;;;;;;;62.37;56.10;;;2.30;92.70;;;;;;5013011;28;20256;-89
2023/01/24 05:55:54;;;;;;;60.67;54.50;;;2.40;92.70;;;;;;5014089;28;20174;-89
2023/01/24 05:58:20;;;;;;;62.50;56.63;;;2.40;92.70;;;;;;5014039;28;20193;-89
2023/01/24 06:00:45;;;;;;;64.57;58.50;;;2.40;92.70;;;;;;5013961;28;20201;-90
2023/01/24 06:03:11;;;;;;;64.43;58.57;;;2.30;92.70;;;;;;5013902;28;20179;-89
2023/01/24 06:05:36;;;;;;;63.33;57.53;;;2.30;92.70;;;;;;5013878;28;20179;-89
2023/01/24 06:08:02;;;;;;;65.20;58.83;;;2.30;92.70;;;;;;5014082;28;20207;-89
2023/01/24 06:10:27;;;;;;;61.53;55.53;;;2.40;92.70;;;;;;5013862;28;20234;-89
2023/01/24 06:12:53;;;;;;;54.63;49.57;;;2.40;92.70;;;;;;5013789;28;20205;-89
2023/01/24 06:15:18;;;;;;;45.97;41.70;;;2.40;92.70;;;;;;5014891;28;20178;-89
2023/01/24 06:17:44;;;;;;;44.13;39.73;;;2.40;92.50;;;;;;5013547;28;20276;-89
2023/01/24 06:20:11;;;;;;;42.63;38.47;;;2.30;92.20;;;;;;5013578;28;20174;-89
2023/01/24 06:22:49;;;;;;;40.33;36.53;;;2.30;91.90;;;;;;5013589;28;20205;-89
2023/01/24 06:25:24;;;;;;;43.50;36.97;;;2.30;91.50;;;;;;5014315;28;20542;-89
2023/01/24 06:27:50;;;;;;;43.33;37.97;;;2.30;91.20;;;;;;5014160;28;20211;-89
2023/01/24 06:30:19;;;;;;;38.87;34.83;;;2.30;91.00;;;;;;5013849;28;20182;-88
2023/01/24 06:33:02;;;;;;;40.33;36.27;;;2.40;90.80;;;;;;5013207;28;20209;-89
2023/01/24 06:35:48;;;;;;;32.53;29.60;;;2.30;90.50;;;;;;5014224;28;20257;-89
2023/01/24 06:38:23;;;;;;;35.67;32.20;;;2.20;90.00;;;;;;5013874;28;20563;-89
2023/01/24 06:40:53;;;;;;;31.00;27.87;;;2.30;89.90;;;;;;5013794;28;20553;-89
2023/01/24 06:43:19;;;;;;;30.50;27.67;;;2.40;89.50;;;;;;5013230;28;20607;-89
2023/01/24 06:45:45;;;;;;;28.10;25.30;;;2.40;88.90;;;;;;5014282;28;20212;-89
2023/01/24 06:48:11;;;;;;;29.73;26.83;;;2.40;88.40;;;;;;5013161;28;20291;-89
2023/01/24 06:50:36;;;;;;;30.37;27.40;;;2.40;88.20;;;;;;5013194;28;20183;-89
2023/01/24 06:53:02;;;;;;;30.50;27.47;;;2.40;88.10;;;;;;5013051;28;20249;-89
2023/01/24 06:55:28;;;;;;;29.03;25.93;;;2.40;88.00;;;;;;5014283;28;20169;-89
2023/01/24 06:57:57;;;;;;;27.80;25.23;;;2.40;87.90;;;;;;5013285;28;20197;-89
2023/01/24 07:00:23;;;;;;;28.30;25.53;;;2.40;87.60;;;;;;5012872;28;20173;-89
2023/01/24 07:02:57;;;;;;;28.77;25.93;;;2.40;87.50;;;;;;5012922;28;20188;-89
2023/01/24 07:05:22;;;;;;;31.13;28.20;;;2.40;87.20;;;;;;5012727;28;20173;-89
2023/01/24 07:07:48;;;;;;;30.00;26.93;;;2.40;87.00;;;;;;5013512;28;20204;-89
2023/01/24 07:10:13;;;;;;;32.03;28.50;;;2.50;87.00;;;;;;5014078;28;20556;-89
2023/01/24 07:12:42;;;;;;;32.83;28.83;;;2.50;87.00;;;;;;5012672;28;20244;-89
2023/01/24 07:15:08;;;;;;;30.50;27.30;;;2.50;87.00;;;;;;5012721;28;20177;-89
2023/01/24 07:17:33;;;;;;;32.10;28.63;;;2.50;87.10;;;;;;5012581;28;20201;-89
2023/01/24 07:19:59;;;;;;;32.33;29.23;;;2.50;87.30;;;;;;5012717;28;20224;-89
2023/01/24 07:22:25;;;;;;;31.43;28.23;;;2.50;87.30;;;;;;5012583;28;20281;-89
2023/01/24 07:24:51;;;;;;;33.07;29.73;;;2.50;87.50;;;;;;5012513;28;20192;-89
2023/01/24 07:27:16;;;;;;;33.93;30.17;;;2.40;87.50;;;;;;5012381;28;20713;-89
2023/01/24 07:29:42;;;;;;;32.27;29.20;;;2.40;87.70;;;;;;5014173;28;20601;-89
2023/01/24 07:32:09;;;;;;;26.23;23.80;;;2.40;87.80;;;;;;5013956;28;20546;-89
2023/01/24 07:34:35;;;;;;;27.03;24.43;;;2.40;87.80;;;;;;5012514;28;20221;-89
2023/01/24 07:37:00;;;;;;;28.00;25.27;;;2.40;87.30;;;;;;5012572;28;20543;-89
2023/01/24 07:39:29;;;;;;;25.37;22.87;;;2.40;87.00;;;;;;5012582;28;20186;-89
2023/01/24 07:41:54;;;;;;;26.20;23.80;;;2.40;86.80;;;;;;5012413;28;20554;-89
2023/01/24 07:44:20;;;;;;;26.90;24.23;;;2.40;86.70;;;;;;5012281;28;20188;-89
2023/01/24 07:46:45;;;;;;;24.90;22.63;;;2.30;86.80;;;;;;5012955;28;20179;-89
2023/01/24 07:49:11;;;;;;;25.13;22.47;;;2.30;86.80;;;;;;5013307;28;20197;-89
2023/01/24 07:51:36;;;;;;;22.50;20.30;;;2.40;86.70;;;;;;5012230;28;20269;-89
2023/01/24 07:54:02;;;;;;;23.03;20.80;;;2.40;86.40;;;;;;5013477;28;20205;-89
2023/01/24 07:56:28;;;;;;;25.30;22.83;;;2.50;85.80;;;;;;5013067;28;20178;-89
2023/01/24 07:58:54;;;;;;;23.43;21.23;;;2.50;85.40;;;;;;5012146;28;20201;-89
2023/01/24 08:01:20;;;;;;;24.50;22.10;;;2.50;85.30;;;;;;5012354;28;20185;-88
2023/01/24 08:03:46;;;;;;;25.37;22.77;;;2.50;85.30;;;;;;5012446;28;20181;-89
2023/01/24 08:06:12;;;;;;;26.10;23.77;;;2.50;85.40;;;;;;5012118;28;20649;-89
2023/01/24 08:08:37;;;;;;;23.07;21.03;;;2.60;84.70;;;;;;5012401;28;20292;-89
2023/01/24 08:11:03;;;;;;;23.73;21.47;;;2.60;84.00;;;;;;5012025;28;20185;-89
2023/01/24 08:13:28;;;;;;;24.83;22.30;;;2.60;83.70;;;;;;5012267;28;20216;-88
2023/01/24 08:15:54;;;;;;;24.73;22.53;;;2.60;83.50;;;;;;5012513;28;20174;-89
2023/01/24 08:18:19;;;;;;;25.00;22.57;;;2.60;83.50;;;;;;5015929;28;20197;-89
2023/01/24 08:20:45;;;;;;;23.83;21.63;;;2.60;83.30;;;;;;5016664;28;20276;-89
2023/01/24 08:23:11;;;;;;;24.90;22.53;;;2.60;83.50;;;;;;5015904;28;20184;-89
2023/01/24 08:25:36;;;;;;;26.03;23.40;;;2.70;83.50;;;;;;5015993;28;20185;-88
2023/01/24 08:28:02;;;;;;;26.67;24.27;;;2.70;83.60;;;;;;5015751;28;20206;-88
2023/01/24 08:30:27;;;;;;;26.10;23.63;;;2.70;84.10;;;;;;5015891;28;20322;-88
2023/01/24 08:33:02;;;;;;;26.73;24.17;;;2.70;84.40;;;;;;5015656;28;20210;-87
2023/01/24 08:35:28;;;;;;;27.00;24.50;;;2.60;84.50;;;;;;5017155;28;20175;-87
2023/01/24 08:37:53;;;;;;;29.17;26.37;;;2.60;84.70;;;;;;5016731;28;20213;-88
2023/01/24 08:40:19;;;;;;;28.40;25.43;;;2.70;84.70;;;;;;5015679;28;20200;-89
2023/01/24 08:42:44;;;;;;;27.30;24.67;;;2.70;84.70;;;;;;5015543;28;20655;-89
2023/01/24 08:45:10;;;;;;;29.07;26.10;;;2.70;84.80;;;;;;5015527;28;20698;-89
2023/01/24 08:47:35;;;;;;;28.60;25.57;;;2.70;85.10;;;;;;5015406;28;20244;-89
2023/01/24 08:50:01;;;;;;;24.80;22.33;;;2.70;85.30;;;;;;5015400;28;20193;-89
2023/01/24 08:52:26;;;;;;;25.33;22.80;;;2.60;85.00;;;;;;5015198;28;20288;-89
2023/01/24 08:54:52;;;;;;;30.07;24.30;;;2.60;84.50;;;;;;5015298;28;20520;-88
2023/01/24 08:57:17;;;;;;;27.70;24.80;;;2.60;84.40;;;;;;5015479;28;20247;-89
2023/01/24 08:59:43;;;;;;;27.60;24.70;;;2.60;84.80;;;;;;5015612;28;20201;-89
2023/01/24 09:02:16;;;;;;;27.23;24.53;;;2.60;85.10;;;;;;5015316;28;20216;-89
2023/01/24 09:04:44;;;;;;;27.47;24.43;;;2.70;85.40;;;;;;5015017;28;20178;-89
2023/01/24 09:07:11;;;;;;;25.83;22.77;;;2.70;85.40;;;;;;5015255;28;20224;-89
2023/01/24 09:09:37;;;;;;;24.17;21.77;;;2.70;85.50;;;;;;5015115;28;20179;-89
2023/01/24 09:12:02;;;;;;;24.53;22.17;;;2.70;85.30;;;;;;5014905;28;20224;-88
2023/01/24 09:14:28;;;;;;;24.37;22.07;;;2.60;84.80;;;;;;5014870;28;20223;-87
2023/01/24 09:16:54;;;;;;;23.40;21.03;;;2.70;84.50;;;;;;5014840;28;20170;-88
2023/01/24 09:19:19;;;;;;;23.60;21.30;;;2.60;84.50;;;;;;5015940;28;20675;-89
2023/01/24 09:21:48;;;;;;;23.57;20.50;;;2.60;84.00;;;;;;5014823;28;20256;-90
2023/01/24 09:24:14;;;;;;;24.00;21.60;;;2.60;83.80;;;;;;5014623;28;20336;-91
2023/01/24 09:26:40;;;;;;;25.37;22.83;;;2.60;83.70;;;;;;5014680;28;20209;-90
2023/01/24 09:29:06;;;;;;;23.67;21.37;;;2.60;83.80;;;;;;5014842;28;20288;-90
2023/01/24 09:31:31;;;;;;;28.73;21.87;;;2.60;83.90;;;;;;5014565;28;20228;-90
2023/01/24 09:33:57;;;;;;;25.27;22.87;;;2.70;84.30;;;;;;5014468;28;20559;-90
2023/01/24 09:36:22;;;;;;;23.83;21.47;;;2.70;84.40;;;;;;5014561;28;20181;-88
2023/01/24 09:38:49;;;;;;;25.83;23.03;;;2.70;84.40;;;;;;5014158;28;20220;-88
2023/01/24 09:41:43;;;;;;;23.27;21.07;;;2.90;84.40;;;;;;5014436;28;20189;-88
2023/01/24 09:44:15;;;;;;;24.67;22.27;;;2.80;83.70;;;;;;5013685;28;20637;-88
2023/01/24 09:46:45;;;;;;;24.33;22.20;;;2.80;83.30;;;;;;5014419;28;20173;-88
2023/01/24 09:49:34;;;;;;;24.23;21.97;;;2.80;83.30;;;;;;5014684;28;20305;-89
2023/01/24 09:52:02;;;;;;;26.83;24.23;;;2.80;83.50;;;;;;5014196;28;20220;-88
2023/01/24 09:54:50;;;;;;;27.30;24.60;;;2.80;83.40;;;;;;5014162;28;20254;-88
2023/01/24 09:57:32;;;;;;;26.73;23.80;;;2.70;83.60;;;;;;5014192;28;20620;-89
2023/01/24 10:00:09;;;;;;;25.80;23.30;;;2.60;84.10;;;;;;5015320;28;20187;-89
2023/01/24 10:02:35;;;;;;;26.33;23.90;;;2.80;84.20;;;;;;5014103;28;20170;-88
2023/01/24 10:05:00;;;;;;;25.23;22.93;;;2.80;84.20;;;;;;5014317;28;20178;-89
2023/01/24 10:07:55;;;;;;;25.13;22.73;;;2.90;84.20;;;;;;5014837;28;20682;-88
2023/01/24 10:10:50;;;;;;;25.37;23.07;;;2.90;83.80;;;;;;5013916;28;20170;-88
2023/01/24 10:13:50;;;;;;;25.57;23.07;;;2.90;83.80;;;;;;5014700;28;20193;-89
2023/01/24 10:16:27;;;;;;;23.87;21.73;;;2.80;83.70;;;;;;5013815;28;20163;-89
2023/01/24 10:19:07;;;;;;;23.20;21.10;;;2.90;83.80;;;;;;5014009;28;20206;-89
2023/01/24 10:21:32;;;;;;;22.87;20.83;;;2.90;83.30;;;;;;5013881;28;20162;-89
2023/01/24 10:24:02;;;;;;;24.57;22.17;;;2.90;82.90;;;;;;5013983;28;20183;-89
2023/01/24 10:26:38;;;;;;;24.93;22.53;;;2.90;82.80;;;;;;5014714;28;20188;-88
2023/01/24 10:29:25;;;;;;;24.37;22.07;;;2.90;82.90;;;;;;5013774;28;20248;-89
2023/01/24 10:31:58;;;;;;;25.60;22.90;;;3.00;83.10;;;;;;5013793;28;20171;-90
2023/01/24 10:34:43;;;;;;;24.10;21.80;;;3.00;83.30;;;;;;5014366;28;20176;-90
2023/01/24 10:37:09;;;;;;;26.07;23.43;;;3.00;83.30;;;;;;5013562;28;20181;-89
2023/01/24 10:39:35;;;;;;;27.10;24.37;;;3.00;83.30;;;;;;5012939;28;20651;-89
2023/01/24 10:42:03;;;;;;;26.97;24.13;;;2.90;83.20;;;;;;5013224;28;20181;-89
2023/01/24 10:44:34;;;;;;;24.37;22.20;;;2.80;83.40;;;;;;5013355;28;20174;-89
2023/01/24 10:47:28;;;;;;;23.37;21.07;;;2.90;83.50;;;;;;5013512;28;20195;-89
2023/01/24 10:49:59;;;;;;;25.83;23.17;;;2.90;83.10;;;;;;5014049;28;20169;-89
2023/01/24 10:52:25;;;;;;;22.87;20.77;;;3.00;82.90;;;;;;5013727;28;20231;-89
2023/01/24 10:54:58;;;;;;;25.63;23.23;;;3.00;82.80;;;;;;5013617;28;20578;-89
2023/01/24 10:57:54;;;;;;;24.17;21.70;;;3.00;82.60;;;;;;5013275;28;20543;-89
2023/01/24 11:00:30;;;;;;;27.10;24.43;;;3.10;82.50;;;;;;5008965;28;20185;-89
2023/01/24 11:02:59;;;;;;;25.93;23.27;;;3.10;82.30;;;;;;5013130;28;20241;-88
2023/01/24 11:05:34;;;;;;;26.40;23.87;;;3.00;82.00;;;;;;5013487;28;20263;-89
2023/01/24 11:08:01;;;;;;;25.93;23.23;;;3.00;81.80;;;;;;5013873;28;20613;-88
2023/01/24 11:10:35;;;;;;;26.43;23.93;;;3.00;81.90;;;;;;5014470;28;20206;-88
2023/01/24 11:13:04;;;;;;;26.60;24.00;;;3.00;82.00;;;;;;5012933;28;20259;-89
2023/01/24 11:15:32;;;;;;;32.10;22.40;;;3.00;82.20;;;;;;5012820;28;20177;-89
2023/01/24 11:24:19;;;;;;;26.60;23.80;;;2.90;82.30;;;;;;4993261;28;20298;-88
2023/01/24 11:27:04;;;;;;;26.93;24.33;;;2.80;82.40;;;;;;4993192;28;20532;-89
2023/01/24 11:29:32;;;;;;;25.67;23.13;;;2.80;82.80;;;;;;4973816;28;20171;-89
2023/01/24 11:32:30;;;;;;;26.17;23.70;;;2.90;82.60;;;;;;4973734;28;20219;-89
2023/01/24 11:35:10;;;;;;;26.37;23.97;;;2.90;82.50;;;;;;4973611;28;20181;-90
2023/01/24 11:37:52;;;;;;;26.67;24.10;;;3.00;81.80;;;;;;4974549;28;20534;-89
2023/01/24 11:40:21;;;;;;;27.17;24.53;;;2.90;82.00;;;;;;4973438;28;20184;-89
2023/01/24 11:43:21;;;;;;;26.93;24.33;;;2.90;82.00;;;;;;4974373;28;20177;-91
2023/01/24 11:46:11;;;;;;;26.07;23.43;;;3.00;82.10;;;;;;4974191;28;20177;-91
2023/01/24 11:48:59;;;;;;;29.30;26.40;;;3.10;81.70;;;;;;4973871;28;20197;-91
2023/01/24 11:51:36;;;;;;;32.83;29.63;;;3.20;81.40;;;;;;4973141;28;20641;-90
2023/01/24 11:54:26;;;;;;;29.83;26.87;;;3.10;80.90;;;;;;4973860;28;20194;-91
2023/01/24 11:56:59;;;;;;;26.77;24.13;;;3.10;80.80;;;;;;4973885;28;20178;-90
2023/01/24 11:59:31;;;;;;;28.43;25.50;;;3.10;81.20;;;;;;4974209;28;20179;-91
2023/01/24 12:02:18;;;;;;;29.20;26.20;;;3.10;81.40;;;;;;4974518;28;20181;-91
2023/01/24 12:04:49;;;;;;;28.40;25.83;;;3.00;81.50;;;;;;4974366;28;20174;-91
2023/01/24 12:07:35;;;;;;;27.30;24.80;;;3.00;81.70;;;;;;4973754;28;20600;-90
2023/01/24 12:10:18;;;;;;;27.23;24.63;;;2.90;81.30;;;;;;4973852;28;20219;-90
2023/01/24 12:13:00;;;;;;;28.40;25.60;;;2.90;81.00;;;;;;4974262;28;20222;-91
2023/01/24 12:15:36;;;;;;;26.13;23.53;;;2.90;81.20;;;;;;4974149;28;20629;-90
2023/01/24 12:18:15;;;;;;;25.17;22.63;;;2.90;81.30;;;;;;4974432;28;20223;-91
2023/01/24 12:20:58;;;;;;;27.07;24.23;;;3.00;81.70;;;;;;4975175;28;20167;-90
2023/01/24 12:23:35;;;;;;;24.37;21.97;;;2.80;81.50;;;;;;4974523;28;20196;-91
2023/01/24 12:26:11;;;;;;;26.57;23.80;;;2.80;81.50;;;;;;4974675;28;20221;-91
2023/01/24 12:29:00;;;;;;;27.10;24.37;;;2.80;81.60;;;;;;4974241;28;20195;-91
2023/01/24 12:31:38;;;;;;;26.03;23.33;;;2.80;81.70;;;;;;4974677;28;20664;-91
2023/01/24 12:34:15;;;;;;;25.17;22.77;;;2.80;81.90;;;;;;4973783;28;20199;-90
2023/01/24 12:36:51;;;;;;;26.27;23.57;;;2.80;81.90;;;;;;4974265;28;20227;-91
2023/01/24 12:39:23;;;;;;;26.13;23.57;;;2.80;81.60;;;;;;4974201;28;20209;-91
2023/01/24 12:42:00;;;;;;;27.33;24.50;;;2.80;81.70;;;;;;4973885;28;20175;-90
2023/01/24 12:44:34;;;;;;;27.73;24.93;;;2.80;81.50;;;;;;4973943;28;20176;-91
2023/01/24 12:47:39;;;;;;;27.77;24.87;;;2.80;81.70;;;;;;4973934;28;20206;-91
2023/01/24 12:50:07;;;;;;;25.40;22.87;;;2.90;82.10;;;;;;4967978;28;20193;-91
2023/01/24 12:53:03;;;;;;;25.77;23.17;;;2.90;81.70;;;;;;4974033;28;20199;-89
2023/01/24 12:55:39;;;;;;;27.87;25.13;;;3.00;81.30;;;;;;4974283;28;20171;-91
2023/01/24 12:58:26;;;;;;;30.03;26.50;;;3.00;80.80;;;;;;4973954;28;20206;-91
2023/01/24 13:01:07;;;;;;;28.60;25.30;;;3.00;81.40;;;;;;4974205;28;20182;-91
2023/01/24 13:04:04;;;;;;;27.17;24.30;;;3.00;81.10;;;;;;4977030;28;20319;-90
2023/01/24 13:06:41;;;;;;;25.63;23.13;;;2.90;81.10;;;;;;4977678;28;20658;-90
2023/01/24 13:09:18;;;;;;;28.20;25.43;;;2.90;81.20;;;;;;4977281;28;20202;-90
2023/01/24 13:11:46;;;;;;;28.30;24.27;;;3.00;81.40;;;;;;4976991;28;20278;-90
2023/01/24 13:14:31;;;;;;;28.77;25.83;;;3.00;81.20;;;;;;4977506;28;20203;-90
2023/01/24 13:17:22;;;;;;;28.83;25.37;;;3.00;81.40;;;;;;4977744;28;20182;-90
2023/01/24 13:19:54;;;;;;;26.87;23.97;;;3.00;81.50;;;;;;4976859;28;20179;-90
2023/01/24 13:23:04;;;;;;;27.77;24.73;;;3.00;81.20;;;;;;4978150;28;20195;-90
2023/01/24 13:26:03;;;;;;;26.80;24.10;;;2.90;81.40;;;;;;4977892;28;20191;-90
2023/01/24 13:28:57;;;;;;;25.90;23.30;;;2.80;80.90;;;;;;4976097;28;20201;-90
2023/01/24 13:31:29;;;;;;;30.10;24.03;;;2.80;81.20;;;;;;4976667;28;20180;-91
2023/01/24 13:34:09;;;;;;;25.33;22.20;;;2.80;81.50;;;;;;4975469;28;20199;-90
2023/01/24 13:36:38;;;;;;;25.87;23.30;;;2.80;81.40;;;;;;4975936;28;20177;-90